Time;durP1;ratioP1;P1;durP2;ratioP2;P2;SDS_P1;SDS_P2;PMS_P1;PMS_P2;Temp;Humidity;BMP_temperature;BMP_pressure;BME280_temperature;BME280_humidity;BME280_pressure;Samples;Min_cycle;Max_cycle;Signal;HPM_P1;HPM_P2
2022/04/06 00:00:26;;;;;;;4.17;3.67;;;;;;;;;;4991624;28;20174;-89
2022/04/06 00:03:30;;;;;;;4.30;3.80;;;;;;;;;;4992126;28;20518;-89
2022/04/06 00:06:34;;;;;;;5.00;4.03;;;;;;;;;;5014233;28;20640;-90
2022/04/06 00:09:39;;;;;;;5.30;4.40;;;;;;;;;;5002843;28;20201;-89
2022/04/06 00:12:43;;;;;;;4.47;3.90;;;;;;;;;;4992051;28;20536;-89
2022/04/06 00:15:47;;;;;;;4.03;3.63;;;;;;;;;;5002873;28;20217;-89
2022/04/06 00:18:52;;;;;;;5.57;4.13;;;;;;;;;;5002959;28;20178;-89
2022/04/06 00:21:55;;;;;;;5.27;4.27;;;;;;;;;;5014174;28;20185;-89
2022/04/06 00:24:59;;;;;;;4.60;4.10;;;;;;;;;;5013696;28;20213;-89
2022/04/06 00:28:04;;;;;;;3.97;3.57;;;;;;;;;;5003061;28;20182;-89
2022/04/06 00:31:08;;;;;;;8.33;3.93;;;;;;;;;;5003156;28;20178;-89
2022/04/06 00:34:12;;;;;;;4.57;3.87;;;;;;;;;;5002909;28;20699;-89
2022/04/06 00:37:16;;;;;;;6.43;4.47;;;;;;;;;;4991865;28;20179;-89
2022/04/06 00:40:22;;;;;;;5.03;4.50;;;;;;;;;;5002459;28;20628;-89
2022/04/06 00:43:26;;;;;;;4.53;3.80;;;;;;;;;;4991330;28;20178;-89
2022/04/06 00:46:30;;;;;;;4.43;3.80;;;;;;;;;;5013808;28;20182;-89
2022/04/06 00:49:34;;;;;;;4.33;3.50;;;;;;;;;;5001936;28;20213;-89
2022/04/06 00:52:39;;;;;;;7.13;4.13;;;;;;;;;;4991060;28;20196;-89
2022/04/06 00:55:43;;;;;;;6.37;3.73;;;;;;;;;;5025161;23;20229;-89
2022/04/06 00:58:48;;;;;;;4.83;3.70;;;;;;;;;;5002421;28;20173;-89
2022/04/06 01:01:52;;;;;;;4.93;4.30;;;;;;;;;;5001988;28;20177;-89
2022/04/06 01:04:56;;;;;;;4.00;3.60;;;;;;;;;;4990849;28;20217;-89
2022/04/06 01:08:01;;;;;;;5.10;3.90;;;;;;;;;;4990938;28;20632;-89
2022/04/06 01:11:05;;;;;;;5.33;3.93;;;;;;;;;;4989565;28;20209;-89
2022/04/06 01:14:10;;;;;;;4.23;3.83;;;;;;;;;;4990625;28;20197;-89
2022/04/06 01:17:14;;;;;;;5.77;4.53;;;;;;;;;;5001516;28;20197;-89
2022/04/06 01:20:18;;;;;;;4.47;4.00;;;;;;;;;;5001499;28;20541;-89
2022/04/06 01:23:22;;;;;;;5.20;4.20;;;;;;;;;;4990658;28;20183;-89
2022/04/06 01:26:26;;;;;;;6.13;3.97;;;;;;;;;;5001907;28;20217;-89
2022/04/06 01:29:31;;;;;;;4.63;3.77;;;;;;;;;;5013358;28;20209;-89
2022/04/06 01:32:35;;;;;;;5.43;4.37;;;;;;;;;;5013048;28;20181;-89
2022/04/06 01:35:42;;;;;;;4.10;3.70;;;;;;;;;;5012513;28;20225;-89
2022/04/06 01:38:45;;;;;;;4.90;3.93;;;;;;;;;;4990903;28;20177;-89
2022/04/06 01:41:50;;;;;;;7.60;4.63;;;;;;;;;;4990891;28;20185;-85
2022/04/06 01:44:54;;;;;;;4.60;4.03;;;;;;;;;;5001378;28;20691;-86
2022/04/06 01:47:58;;;;;;;6.07;3.80;;;;;;;;;;4990518;28;20177;-85
2022/04/06 01:54:25;;;;;;;4.77;4.23;;;;;;;;;;5012731;28;20546;-86
2022/04/06 01:57:30;;;;;;;6.07;4.33;;;;;;;;;;5001553;28;20181;-85
2022/04/06 02:00:34;;;;;;;5.20;4.00;;;;;;;;;;4990382;28;20528;-85
2022/04/06 02:03:39;;;;;;;4.70;3.83;;;;;;;;;;5001429;28;20170;-85
2022/04/06 02:06:43;;;;;;;5.37;4.27;;;;;;;;;;5001426;28;20186;-85
2022/04/06 02:09:47;;;;;;;4.50;3.83;;;;;;;;;;5001304;28;20201;-85
2022/04/06 02:12:54;;;;;;;5.30;4.30;;;;;;;;;;4990371;28;20178;-85
2022/04/06 02:15:58;;;;;;;5.47;4.07;;;;;;;;;;4989935;28;20561;-85
2022/04/06 02:19:03;;;;;;;4.37;3.70;;;;;;;;;;5001025;28;20201;-85
2022/04/06 02:22:08;;;;;;;5.27;4.20;;;;;;;;;;4990658;28;20170;-85
2022/04/06 02:25:12;;;;;;;5.13;4.00;;;;;;;;;;4993574;28;20587;-85
2022/04/06 02:28:16;;;;;;;5.90;4.17;;;;;;;;;;5015885;28;20209;-85
2022/04/06 02:31:21;;;;;;;4.17;3.60;;;;;;;;;;5016247;28;20647;-85
2022/04/06 02:34:25;;;;;;;5.67;4.13;;;;;;;;;;5004599;28;20225;-86
2022/04/06 02:37:29;;;;;;;6.33;4.23;;;;;;;;;;4993470;28;20513;-85
2022/04/06 02:40:33;;;;;;;6.17;4.20;;;;;;;;;;4993208;28;20628;-85
2022/04/06 02:43:37;;;;;;;7.97;4.40;;;;;;;;;;5015731;28;20181;-85
2022/04/06 02:46:46;;;;;;;4.60;3.87;;;;;;;;;;5004619;28;20181;-86
2022/04/06 02:49:50;;;;;;;5.07;3.63;;;;;;;;;;4992704;28;20226;-85
2022/04/06 02:52:54;;;;;;;5.40;4.17;;;;;;;;;;4992869;28;20201;-85
2022/04/06 02:55:58;;;;;;;6.27;4.30;;;;;;;;;;5003874;28;20225;-86
2022/04/06 02:59:03;;;;;;;6.57;4.60;;;;;;;;;;4993120;28;20177;-86
2022/04/06 03:02:07;;;;;;;4.93;3.87;;;;;;;;;;4992761;28;20194;-85
2022/04/06 03:05:11;;;;;;;4.40;3.67;;;;;;;;;;4992891;28;20224;-86
2022/04/06 03:08:15;;;;;;;6.40;4.07;;;;;;;;;;5004370;28;20178;-85
2022/04/06 03:11:19;;;;;;;4.70;3.97;;;;;;;;;;5004017;28;20205;-85
2022/04/06 03:14:23;;;;;;;4.80;3.80;;;;;;;;;;5003896;28;20174;-85
2022/04/06 03:17:28;;;;;;;5.37;4.03;;;;;;;;;;5003907;28;20185;-85
2022/04/06 03:20:32;;;;;;;4.30;3.50;;;;;;;;;;5003908;28;20182;-85
2022/04/06 03:23:36;;;;;;;6.00;4.07;;;;;;;;;;5003798;28;20177;-85
2022/04/06 03:26:40;;;;;;;4.50;3.90;;;;;;;;;;4992680;28;20193;-86
2022/04/06 03:29:44;;;;;;;5.30;4.10;;;;;;;;;;5003704;28;20190;-85
2022/04/06 03:32:48;;;;;;;4.63;3.93;;;;;;;;;;4992457;28;20181;-86
2022/04/06 03:35:52;;;;;;;8.43;4.73;;;;;;;;;;4991913;28;20216;-86
2022/04/06 03:38:56;;;;;;;7.50;4.80;;;;;;;;;;4992342;28;20182;-86
2022/04/06 03:42:00;;;;;;;6.10;4.80;;;;;;;;;;4992387;28;20190;-89
2022/04/06 03:45:05;;;;;;;5.77;4.57;;;;;;;;;;4992146;28;20691;-89
2022/04/06 03:48:09;;;;;;;7.10;5.17;;;;;;;;;;5003574;28;20186;-89
2022/04/06 03:51:13;;;;;;;4.50;4.00;;;;;;;;;;5003187;28;20205;-89
2022/04/06 03:54:17;;;;;;;5.93;4.97;;;;;;;;;;5014272;28;20201;-89
2022/04/06 03:57:22;;;;;;;5.80;4.67;;;;;;;;;;4992030;28;20174;-89
2022/04/06 04:00:26;;;;;;;7.30;4.50;;;;;;;;;;5003032;28;20173;-89
2022/04/06 04:03:29;;;;;;;5.90;4.67;;;;;;;;;;5003169;28;20181;-89
2022/04/06 04:06:34;;;;;;;5.60;4.90;;;;;;;;;;4991545;28;20201;-89
2022/04/06 04:09:38;;;;;;;6.87;4.73;;;;;;;;;;4991816;28;20629;-89
2022/04/06 04:12:42;;;;;;;5.70;4.73;;;;;;;;;;5003324;28;20177;-89
2022/04/06 04:15:46;;;;;;;5.40;4.50;;;;;;;;;;5003445;28;20541;-90
2022/04/06 04:18:51;;;;;;;5.07;4.37;;;;;;;;;;4991693;28;20193;-89
2022/04/06 04:21:55;;;;;;;6.47;4.57;;;;;;;;;;5002738;28;20181;-89
2022/04/06 04:24:59;;;;;;;5.77;4.57;;;;;;;;;;4991327;28;20221;-89
2022/04/06 04:28:04;;;;;;;5.40;4.27;;;;;;;;;;4991795;28;20186;-85
2022/04/06 04:31:07;;;;;;;6.57;4.70;;;;;;;;;;5004145;28;20232;-84
2022/04/06 04:34:12;;;;;;;7.17;4.20;;;;;;;;;;4993031;28;20197;-85
2022/04/06 04:37:17;;;;;;;6.67;4.20;;;;;;;;;;4993319;28;20537;-85
2022/04/06 04:40:21;;;;;;;6.83;4.60;;;;;;;;;;4993262;28;20205;-85
2022/04/06 04:43:26;;;;;;;6.80;4.43;;;;;;;;;;5003252;28;20197;-85
2022/04/06 04:46:30;;;;;;;4.90;4.40;;;;;;;;;;5001748;28;20213;-87
2022/04/06 04:49:34;;;;;;;7.97;4.30;;;;;;;;;;5002357;28;20190;-87
2022/04/06 04:52:38;;;;;;;5.03;4.30;;;;;;;;;;5002429;28;20177;-87
2022/04/06 04:55:42;;;;;;;5.03;4.40;;;;;;;;;;4991913;28;20221;-85
2022/04/06 04:58:46;;;;;;;5.50;4.90;;;;;;;;;;4992823;28;20181;-85
2022/04/06 05:01:51;;;;;;;5.90;4.57;;;;;;;;;;4992853;28;20174;-85
2022/04/06 05:04:54;;;;;;;6.53;4.90;;;;;;;;;;4992356;28;20213;-85
2022/04/06 05:07:59;;;;;;;5.77;4.40;;;;;;;;;;5002878;28;20189;-85
2022/04/06 05:11:03;;;;;;;6.20;4.60;;;;;;;;;;5014228;28;20568;-85
2022/04/06 05:14:07;;;;;;;6.63;4.93;;;;;;;;;;5014667;28;20182;-85
2022/04/06 05:17:10;;;;;;;4.83;4.10;;;;;;;;;;5013766;28;20209;-85
2022/04/06 05:20:15;;;;;;;6.30;4.70;;;;;;;;;;4991357;28;20196;-85
2022/04/06 05:23:19;;;;;;;5.23;4.63;;;;;;;;;;5002556;28;20201;-85
2022/04/06 05:26:23;;;;;;;5.00;4.47;;;;;;;;;;5001744;28;20221;-86
2022/04/06 05:29:27;;;;;;;6.87;4.87;;;;;;;;;;5001670;28;20185;-86
2022/04/06 05:32:31;;;;;;;5.30;4.20;;;;;;;;;;4990518;28;20699;-86
2022/04/06 05:35:36;;;;;;;8.30;4.87;;;;;;;;;;5001379;28;20217;-87
2022/04/06 05:38:40;;;;;;;7.10;5.17;;;;;;;;;;5001579;28;20539;-87
2022/04/06 05:41:44;;;;;;;5.97;3.50;;;;;;;;;;4990830;28;20178;-85
2022/04/06 05:44:49;;;;;;;5.27;4.73;;;;;;;;;;5001667;28;20217;-88
2022/04/06 05:47:53;;;;;;;8.87;7.97;;;;;;;;;;4990430;28;20181;-88
2022/04/06 05:50:57;;;;;;;7.70;5.80;;;;;;;;;;5001540;28;20568;-85
2022/04/06 05:54:02;;;;;;;6.40;5.77;;;;;;;;;;4991012;28;20201;-89
2022/04/06 05:57:06;;;;;;;5.83;4.97;;;;;;;;;;5002119;28;20529;-90
2022/04/06 06:00:10;;;;;;;7.07;5.30;;;;;;;;;;4994087;28;20181;-90
2022/04/06 06:03:17;;;;;;;10.73;7.50;;;;;;;;;;5005014;28;20189;-90
2022/04/06 06:06:21;;;;;;;9.00;6.63;;;;;;;;;;5005039;28;20220;-90
2022/04/06 06:09:25;;;;;;;10.73;6.13;;;;;;;;;;5005167;28;20177;-90
2022/04/06 06:12:31;;;;;;;5.83;5.20;;;;;;;;;;4994688;28;20213;-90
2022/04/06 06:15:35;;;;;;;6.27;5.20;;;;;;;;;;5004611;28;20558;-90
2022/04/06 06:18:38;;;;;;;7.50;4.90;;;;;;;;;;5016190;28;20575;-90
2022/04/06 06:21:43;;;;;;;6.13;4.90;;;;;;;;;;5016099;28;20169;-90
2022/04/06 06:24:47;;;;;;;6.50;5.50;;;;;;;;;;5004757;28;20553;-90
2022/04/06 06:27:52;;;;;;;7.50;6.80;;;;;;;;;;5004870;28;20189;-90
2022/04/06 06:30:56;;;;;;;15.77;14.30;;;;;;;;;;5004760;28;20217;-90
2022/04/06 06:34:01;;;;;;;8.43;5.63;;;;;;;;;;4993443;28;20648;-90
2022/04/06 06:37:06;;;;;;;6.40;4.63;;;;;;;;;;4993570;28;20182;-90
2022/04/06 06:40:10;;;;;;;5.33;4.00;;;;;;;;;;5004428;28;20186;-90
2022/04/06 06:43:15;;;;;;;9.70;4.50;;;;;;;;;;4993527;28;20173;-90
2022/04/06 06:46:21;;;;;;;8.70;5.43;;;;;;;;;;4993534;28;20213;-90
2022/04/06 06:49:26;;;;;;;6.70;4.43;;;;;;;;;;5004869;28;20636;-85
2022/04/06 06:52:32;;;;;;;29.27;19.73;;;;;;;;;;4994105;28;20213;-85
2022/04/06 06:55:36;;;;;;;21.23;14.33;;;;;;;;;;5004514;28;20228;-86
2022/04/06 06:58:40;;;;;;;24.90;17.17;;;;;;;;;;4993125;28;20651;-86
2022/04/06 07:01:44;;;;;;;9.00;6.83;;;;;;;;;;5004269;28;20189;-86
2022/04/06 07:04:48;;;;;;;8.43;7.40;;;;;;;;;;5003933;28;20221;-87
2022/04/06 07:07:57;;;;;;;7.83;6.37;;;;;;;;;;4992793;28;20181;-86
2022/04/06 07:11:01;;;;;;;5.97;5.17;;;;;;;;;;4992681;28;20672;-87
2022/04/06 07:14:05;;;;;;;10.87;5.37;;;;;;;;;;4992822;28;20182;-86
2022/04/06 07:17:09;;;;;;;7.63;4.67;;;;;;;;;;5003903;28;20182;-86
2022/04/06 07:20:13;;;;;;;4.67;3.43;;;;;;;;;;4992718;28;20181;-87
2022/04/06 07:23:18;;;;;;;4.40;4.00;;;;;;;;;;5014829;28;20174;-87
2022/04/06 07:26:22;;;;;;;5.17;3.90;;;;;;;;;;5003341;28;20224;-87
2022/04/06 07:29:26;;;;;;;4.50;3.70;;;;;;;;;;5003743;28;20189;-88
2022/04/06 07:32:31;;;;;;;5.47;3.50;;;;;;;;;;4992478;28;20209;-88
2022/04/06 07:35:37;;;;;;;4.30;3.77;;;;;;;;;;4992330;28;20213;-88
2022/04/06 07:38:41;;;;;;;4.10;3.10;;;;;;;;;;4992600;28;20181;-88
2022/04/06 07:41:45;;;;;;;4.43;3.47;;;;;;;;;;5003484;28;20177;-88
2022/04/06 07:44:49;;;;;;;3.87;3.43;;;;;;;;;;4992269;28;20688;-88
2022/04/06 07:47:54;;;;;;;3.33;2.63;;;;;;;;;;4992303;28;20177;-88
2022/04/06 07:50:58;;;;;;;3.53;2.07;;;;;;;;;;4992472;28;20190;-89
2022/04/06 07:54:02;;;;;;;3.07;2.30;;;;;;;;;;4992343;28;20181;-88
2022/04/06 07:57:06;;;;;;;2.40;2.17;;;;;;;;;;4992457;28;20173;-86
2022/04/06 08:00:13;;;;;;;3.03;2.00;;;;;;;;;;4992181;28;20193;-91
2022/04/06 08:03:17;;;;;;;5.37;2.43;;;;;;;;;;5003089;28;20510;-89
2022/04/06 08:06:24;;;;;;;2.93;2.00;;;;;;;;;;5002700;28;20216;-88
2022/04/06 08:09:28;;;;;;;3.40;2.10;;;;;;;;;;4991886;28;20182;-88
2022/04/06 08:12:32;;;;;;;2.13;1.60;;;;;;;;;;5002878;28;20217;-89
2022/04/06 08:15:36;;;;;;;2.20;1.47;;;;;;;;;;4991891;28;20216;-88
2022/04/06 08:18:40;;;;;;;2.23;1.60;;;;;;;;;;5003001;28;20186;-92
2022/04/06 08:21:44;;;;;;;1.77;1.60;;;;;;;;;;5002514;28;20185;-91
2022/04/06 08:24:49;;;;;;;2.07;1.70;;;;;;;;;;5002726;28;20221;-86
2022/04/06 08:27:53;;;;;;;1.97;1.60;;;;;;;;;;4991554;28;20185;-86
2022/04/06 08:30:57;;;;;;;4.67;4.27;;;;;;;;;;4991431;28;20182;-86
2022/04/06 08:34:03;;;;;;;2.20;1.80;;;;;;;;;;4991446;28;20525;-86
2022/04/06 08:37:08;;;;;;;3.67;3.33;;;;;;;;;;4991458;28;20178;-86
2022/04/06 08:40:13;;;;;;;2.60;2.40;;;;;;;;;;5002502;28;20189;-86
2022/04/06 08:43:17;;;;;;;3.50;2.20;;;;;;;;;;5002329;28;20513;-86
2022/04/06 08:46:22;;;;;;;2.17;1.97;;;;;;;;;;4991061;28;20217;-86
2022/04/06 08:49:27;;;;;;;2.33;2.13;;;;;;;;;;5002222;28;20173;-86
2022/04/06 08:52:33;;;;;;;2.47;2.00;;;;;;;;;;4991358;28;20214;-86
2022/04/06 08:55:37;;;;;;;2.20;1.70;;;;;;;;;;4990781;28;20225;-86
2022/04/06 08:58:41;;;;;;;3.80;1.80;;;;;;;;;;4991036;28;20537;-86
2022/04/06 09:01:46;;;;;;;2.17;1.63;;;;;;;;;;4999871;28;20584;-86
2022/04/06 09:04:51;;;;;;;1.70;1.50;;;;;;;;;;4990753;28;20217;-92
2022/04/06 09:07:56;;;;;;;1.60;1.40;;;;;;;;;;4983402;28;20182;-86
2022/04/06 09:11:08;;;;;;;2.33;2.00;;;;;;;;;;4998314;28;20192;-86
2022/04/06 09:14:12;;;;;;;1.87;1.50;;;;;;;;;;4990812;28;20178;-88
2022/04/06 09:17:20;;;;;;;2.23;1.50;;;;;;;;;;4999796;28;20189;-90
2022/04/06 09:20:24;;;;;;;4.20;1.77;;;;;;;;;;5001672;28;20182;-86
2022/04/06 09:23:30;;;;;;;1.50;1.30;;;;;;;;;;4972627;28;20190;-87
2022/04/06 09:26:34;;;;;;;1.97;1.50;;;;;;;;;;4995683;28;20189;-87
2022/04/06 09:29:38;;;;;;;2.00;1.33;;;;;;;;;;4971392;28;20187;-87
2022/04/06 09:32:43;;;;;;;2.00;1.60;;;;;;;;;;4998327;28;20224;-86
2022/04/06 09:35:48;;;;;;;2.37;1.50;;;;;;;;;;4991870;28;20218;-87
2022/04/06 09:38:53;;;;;;;2.30;1.40;;;;;;;;;;4994606;28;20182;-89
2022/04/06 09:41:59;;;;;;;2.80;1.70;;;;;;;;;;4995117;28;20178;-85
2022/04/06 09:48:26;;;;;;;2.83;1.37;;;;;;;;;;5002184;28;20197;-87
2022/04/06 09:51:31;;;;;;;7.50;1.40;;;;;;;;;;4986395;28;20194;-89
2022/04/06 09:54:37;;;;;;;1.90;1.50;;;;;;;;;;4974756;28;20233;-88
2022/04/06 09:57:45;;;;;;;4.50;1.60;;;;;;;;;;5006553;28;20649;-87
2022/04/06 10:00:51;;;;;;;4.50;4.10;;;;;;;;;;5015792;28;20181;-87
2022/04/06 10:03:58;;;;;;;4.23;3.83;;;;;;;;;;5005522;28;20174;-86
2022/04/06 10:07:04;;;;;;;2.70;2.20;;;;;;;;;;4994589;28;20181;-89
2022/04/06 10:10:08;;;;;;;5.43;1.83;;;;;;;;;;4994802;28;20186;-86
2022/04/06 10:13:12;;;;;;;2.80;1.53;;;;;;;;;;4977614;28;20214;-88
2022/04/06 10:16:20;;;;;;;1.77;1.40;;;;;;;;;;4999493;28;20221;-85
2022/04/06 10:19:33;;;;;;;1.70;1.50;;;;;;;;;;4998298;28;20194;-85
2022/04/06 10:22:45;;;;;;;1.90;1.30;;;;;;;;;;4978579;28;20194;-87
2022/04/06 10:26:13;;;;;;;1.80;1.30;;;;;;;;;;5001633;28;20217;-87
2022/04/06 10:29:17;;;;;;;1.83;1.40;;;;;;;;;;5000479;28;20190;-87
2022/04/06 10:32:32;;;;;;;2.30;1.43;;;;;;;;;;4975163;28;20213;-85
2022/04/06 10:35:37;;;;;;;1.23;1.13;;;;;;;;;;4975301;28;20217;-85
2022/04/06 10:39:18;;;;;;;1.23;1.07;;;;;;;;;;4986055;28;20178;-90
2022/04/06 10:42:28;;;;;;;2.17;1.20;;;;;;;;;;4985129;28;20174;-90
2022/04/06 10:45:34;;;;;;;1.43;1.20;;;;;;;;;;4989190;28;20216;-88
2022/04/06 10:49:17;;;;;;;1.23;1.13;;;;;;;;;;4993449;28;20518;-87
2022/04/06 10:52:23;;;;;;;1.33;1.20;;;;;;;;;;5004919;28;20210;-87
2022/04/06 10:55:28;;;;;;;5.13;1.30;;;;;;;;;;5002397;28;20228;-87
2022/04/06 10:58:54;;;;;;;2.23;1.10;;;;;;;;;;4993125;28;20652;-87
2022/04/06 11:02:17;;;;;;;1.63;1.23;;;;;;;;;;4992999;28;20186;-87
2022/04/06 11:05:40;;;;;;;1.33;1.20;;;;;;;;;;4992779;28;20222;-87
2022/04/06 11:12:22;;;;;;;1.70;1.20;;;;;;;;;;4994026;28;20217;-88
2022/04/06 11:15:41;;;;;;;1.33;1.10;;;;;;;;;;4985324;28;20218;-88
2022/04/06 11:18:49;;;;;;;3.33;0.97;;;;;;;;;;4984577;28;20190;-88
2022/04/06 11:21:56;;;;;;;1.20;0.97;;;;;;;;;;4989033;28;20205;-85
2022/04/06 11:25:00;;;;;;;2.20;1.10;;;;;;;;;;5015209;28;20696;-87
2022/04/06 11:28:07;;;;;;;1.07;0.97;;;;;;;;;;4976997;28;20649;-85
2022/04/06 11:31:17;;;;;;;2.33;1.07;;;;;;;;;;4983924;28;20554;-87
2022/04/06 11:34:32;;;;;;;1.87;1.00;;;;;;;;;;4986268;28;20226;-85
2022/04/06 11:37:43;;;;;;;2.20;0.90;;;;;;;;;;4992221;28;20198;-87
2022/04/06 11:40:48;;;;;;;2.77;1.07;;;;;;;;;;4972970;28;20202;-85
2022/04/06 11:43:53;;;;;;;2.00;0.80;;;;;;;;;;4973450;28;20174;-85
2022/04/06 11:46:57;;;;;;;1.67;0.97;;;;;;;;;;4976861;28;20205;-87
2022/04/06 11:50:12;;;;;;;1.50;1.00;;;;;;;;;;4979829;28;20206;-86
2022/04/06 11:53:18;;;;;;;1.20;1.10;;;;;;;;;;4983881;28;20213;-85
2022/04/06 11:56:22;;;;;;;1.00;0.90;;;;;;;;;;4988200;28;20225;-85
2022/04/06 11:59:31;;;;;;;1.77;1.10;;;;;;;;;;4990247;28;20680;-89
2022/04/06 12:02:52;;;;;;;1.90;1.57;;;;;;;;;;4987815;28;20212;-85
2022/04/06 12:05:56;;;;;;;1.67;1.50;;;;;;;;;;4991148;28;20221;-85
2022/04/06 12:08:59;;;;;;;1.67;1.57;;;;;;;;;;4981084;28;20558;-85
2022/04/06 12:12:05;;;;;;;1.57;1.47;;;;;;;;;;4983757;28;20545;-87
2022/04/06 12:15:09;;;;;;;1.57;1.30;;;;;;;;;;4985896;28;20210;-87
2022/04/06 12:18:23;;;;;;;6.50;5.97;;;;;;;;;;4972421;28;20526;-86
2022/04/06 12:21:28;;;;;;;6.00;4.63;;;;;;;;;;4972616;28;20657;-85
2022/04/06 12:24:40;;;;;;;2.57;2.27;;;;;;;;;;4984925;28;20221;-90
2022/04/06 12:27:45;;;;;;;3.67;2.43;;;;;;;;;;5013803;28;20178;-89
2022/04/06 12:30:57;;;;;;;2.33;2.13;;;;;;;;;;4983611;28;20198;-85
2022/04/06 12:34:02;;;;;;;1.83;1.73;;;;;;;;;;4986685;28;20214;-87
2022/04/06 12:40:28;;;;;;;5.37;1.50;;;;;;;;;;4998936;28;20653;-88
2022/04/06 12:43:36;;;;;;;1.50;1.27;;;;;;;;;;5000552;28;20174;-88
2022/04/06 12:46:43;;;;;;;1.30;1.20;;;;;;;;;;4971828;28;20286;-88
2022/04/06 12:49:47;;;;;;;3.73;1.37;;;;;;;;;;4983256;28;20174;-85
2022/04/06 12:53:10;;;;;;;1.60;1.30;;;;;;;;;;4971955;28;20243;-85
2022/04/06 12:56:15;;;;;;;4.00;1.47;;;;;;;;;;4972673;28;20230;-89
2022/04/06 12:59:19;;;;;;;2.80;1.03;;;;;;;;;;4971202;28;20198;-87
2022/04/06 13:02:31;;;;;;;1.30;1.20;;;;;;;;;;4982929;28;20174;-89
2022/04/06 13:05:35;;;;;;;1.60;1.40;;;;;;;;;;4987960;28;20221;-87
2022/04/06 13:08:39;;;;;;;2.70;1.50;;;;;;;;;;4990875;28;20173;-87
2022/04/06 13:11:43;;;;;;;1.30;1.10;;;;;;;;;;5006388;28;20201;-89
2022/04/06 13:14:49;;;;;;;1.40;1.20;;;;;;;;;;4986564;28;20233;-87
2022/04/06 13:17:54;;;;;;;1.87;1.40;;;;;;;;;;4989228;28;20198;-86
2022/04/06 13:20:58;;;;;;;2.67;2.03;;;;;;;;;;4982392;28;20178;-88
2022/04/06 13:24:03;;;;;;;1.90;1.20;;;;;;;;;;4992719;28;20186;-92
2022/04/06 13:27:07;;;;;;;1.53;1.10;;;;;;;;;;4990817;28;20186;-86
2022/04/06 13:30:15;;;;;;;3.30;1.00;;;;;;;;;;5010386;28;20637;-88
2022/04/06 13:33:21;;;;;;;2.10;0.90;;;;;;;;;;4982007;28;20210;-90
2022/04/06 13:36:25;;;;;;;1.13;0.90;;;;;;;;;;4993428;28;20221;-88
2022/04/06 13:39:29;;;;;;;5.00;1.30;;;;;;;;;;4971341;28;20629;-91
2022/04/06 13:42:33;;;;;;;1.97;1.37;;;;;;;;;;4993351;28;20181;-85
2022/04/06 13:45:37;;;;;;;1.10;1.00;;;;;;;;;;4971233;28;20213;-85
2022/04/06 13:48:41;;;;;;;1.27;1.07;;;;;;;;;;4971408;28;20174;-88
2022/04/06 13:51:46;;;;;;;5.60;1.30;;;;;;;;;;4982355;28;20185;-87
2022/04/06 13:54:52;;;;;;;1.50;0.80;;;;;;;;;;4981621;28;20226;-87
2022/04/06 13:57:56;;;;;;;1.33;0.80;;;;;;;;;;4971016;28;20179;-87
2022/04/06 14:01:01;;;;;;;1.13;0.80;;;;;;;;;;4982119;28;20633;-85
2022/04/06 14:04:06;;;;;;;0.63;0.63;;;;;;;;;;4982497;28;20186;-85
2022/04/06 14:07:10;;;;;;;0.97;0.87;;;;;;;;;;4971252;28;20183;-85
2022/04/06 14:10:15;;;;;;;0.83;0.80;;;;;;;;;;4970767;28;20182;-88
2022/04/06 14:13:21;;;;;;;2.77;1.23;;;;;;;;;;4981832;28;20550;-88
2022/04/06 14:16:25;;;;;;;0.80;0.70;;;;;;;;;;4981707;28;20701;-88
2022/04/06 14:19:29;;;;;;;0.73;0.70;;;;;;;;;;4995531;28;20201;-88
2022/04/06 14:22:33;;;;;;;1.53;0.70;;;;;;;;;;4974460;28;20178;-88
2022/04/06 14:25:38;;;;;;;1.67;0.80;;;;;;;;;;4974212;28;20681;-88
2022/04/06 14:28:42;;;;;;;0.63;0.60;;;;;;;;;;4985398;28;20190;-88
2022/04/06 14:31:46;;;;;;;1.10;0.80;;;;;;;;;;4974353;28;20633;-88
2022/04/06 14:34:51;;;;;;;2.40;0.70;;;;;;;;;;4974186;28;20226;-87
2022/04/06 14:37:56;;;;;;;0.60;0.60;;;;;;;;;;4985249;28;20178;-87
2022/04/06 14:41:00;;;;;;;1.53;0.77;;;;;;;;;;4973842;28;20633;-87
2022/04/06 14:44:04;;;;;;;1.13;0.63;;;;;;;;;;4974298;28;20175;-88
2022/04/06 14:47:08;;;;;;;2.57;0.60;;;;;;;;;;4996318;28;20182;-88
2022/04/06 14:50:12;;;;;;;0.77;0.60;;;;;;;;;;4973979;28;20182;-87
2022/04/06 14:53:17;;;;;;;0.67;0.60;;;;;;;;;;4973734;28;20202;-88
2022/04/06 14:56:21;;;;;;;2.13;0.77;;;;;;;;;;4973408;28;20222;-87
2022/04/06 14:59:27;;;;;;;6.37;4.50;;;;;;;;;;4985008;28;20202;-87
2022/04/06 15:02:31;;;;;;;3.77;3.27;;;;;;;;;;4973721;28;20175;-88
2022/04/06 15:05:36;;;;;;;2.83;1.90;;;;;;;;;;4985149;28;20218;-85
2022/04/06 15:08:41;;;;;;;1.73;1.57;;;;;;;;;;4984518;28;20198;-87
2022/04/06 15:11:45;;;;;;;1.60;0.63;;;;;;;;;;4973927;28;20515;-87
2022/04/06 15:14:49;;;;;;;0.80;0.77;;;;;;;;;;4973319;28;20233;-87
2022/04/06 15:17:54;;;;;;;0.80;0.70;;;;;;;;;;4984919;28;20522;-88
2022/04/06 15:21:00;;;;;;;2.07;0.80;;;;;;;;;;4984879;28;20178;-86
2022/04/06 15:24:06;;;;;;;1.07;0.60;;;;;;;;;;4973528;28;20198;-90
2022/04/06 15:27:10;;;;;;;1.00;0.70;;;;;;;;;;4988682;28;20648;-90
2022/04/06 15:30:15;;;;;;;1.17;0.83;;;;;;;;;;4991155;28;20656;-88
2022/04/06 15:33:19;;;;;;;0.73;0.70;;;;;;;;;;4992727;28;20269;-89
2022/04/06 15:39:46;;;;;;;0.73;0.70;;;;;;;;;;5011745;28;20646;-87
2022/04/06 15:42:53;;;;;;;0.97;0.70;;;;;;;;;;4973357;28;20186;-91
2022/04/06 15:45:57;;;;;;;1.30;0.70;;;;;;;;;;4990943;28;20681;-87
2022/04/06 15:49:02;;;;;;;2.07;1.57;;;;;;;;;;4985301;28;20189;-87
2022/04/06 15:52:06;;;;;;;8.27;4.93;;;;;;;;;;4984152;28;20186;-91
2022/04/06 15:55:10;;;;;;;1.57;1.10;;;;;;;;;;4983512;28;20226;-91
2022/04/06 15:58:17;;;;;;;1.23;1.07;;;;;;;;;;4997183;28;20668;-89
2022/04/06 16:01:21;;;;;;;1.67;1.00;;;;;;;;;;4991850;28;20181;-89
2022/04/06 16:04:28;;;;;;;1.43;0.80;;;;;;;;;;4990537;28;20194;-89
2022/04/06 16:07:32;;;;;;;14.23;10.20;;;;;;;;;;4984263;28;20174;-88
2022/04/06 16:10:37;;;;;;;1.47;0.90;;;;;;;;;;4973705;28;20577;-87
2022/04/06 16:13:41;;;;;;;0.70;0.70;;;;;;;;;;4983947;28;20539;-86
2022/04/06 16:16:45;;;;;;;1.87;1.10;;;;;;;;;;4983709;28;20198;-88
2022/04/06 16:19:49;;;;;;;3.00;1.40;;;;;;;;;;4983997;28;20182;-89
2022/04/06 16:22:53;;;;;;;1.67;1.50;;;;;;;;;;4971742;28;20657;-90
2022/04/06 16:25:57;;;;;;;3.07;0.90;;;;;;;;;;4972181;28;20210;-89
2022/04/06 16:29:03;;;;;;;3.03;1.00;;;;;;;;;;4983142;28;20206;-84
2022/04/06 16:32:07;;;;;;;3.67;1.30;;;;;;;;;;4972301;28;20201;-88
2022/04/06 16:35:12;;;;;;;1.57;0.83;;;;;;;;;;4974561;28;20226;-87
2022/04/06 16:38:16;;;;;;;2.50;1.00;;;;;;;;;;4983330;28;20190;-90
2022/04/06 16:41:20;;;;;;;4.90;2.10;;;;;;;;;;4973013;28;20190;-90
2022/04/06 16:44:25;;;;;;;3.27;1.80;;;;;;;;;;4987930;28;20664;-88
2022/04/06 16:47:29;;;;;;;1.00;0.90;;;;;;;;;;4982854;28;20649;-87
2022/04/06 16:53:55;;;;;;;1.27;0.70;;;;;;;;;;4990672;28;20194;-86
2022/04/06 16:57:00;;;;;;;1.30;1.00;;;;;;;;;;4973040;28;20186;-85
2022/04/06 17:00:05;;;;;;;0.80;0.70;;;;;;;;;;4971778;28;20182;-91
2022/04/06 17:03:10;;;;;;;1.67;0.97;;;;;;;;;;4983088;28;20207;-89
2022/04/06 17:06:17;;;;;;;7.57;1.20;;;;;;;;;;4982663;28;20218;-88
2022/04/06 17:09:23;;;;;;;4.60;1.40;;;;;;;;;;4982691;28;20205;-90
2022/04/06 17:12:31;;;;;;;3.80;0.83;;;;;;;;;;5029751;28;20192;-88
2022/04/06 17:15:37;;;;;;;1.03;0.77;;;;;;;;;;4994837;28;20226;-88
2022/04/06 17:18:41;;;;;;;1.73;0.87;;;;;;;;;;4983569;28;20186;-87
2022/04/06 17:21:45;;;;;;;1.57;0.80;;;;;;;;;;4971634;28;20186;-81
2022/04/06 17:24:50;;;;;;;1.83;0.90;;;;;;;;;;5001825;28;20557;-84
2022/04/06 17:27:55;;;;;;;1.20;0.90;;;;;;;;;;5002752;28;20178;-86
2022/04/06 17:30:59;;;;;;;2.00;0.90;;;;;;;;;;4992860;28;20645;-89
2022/04/06 17:34:29;;;;;;;1.13;0.93;;;;;;;;;;4996219;28;20546;-91
2022/04/06 17:37:38;;;;;;;3.43;0.87;;;;;;;;;;5013357;28;20177;-88
2022/04/06 17:40:42;;;;;;;1.00;0.80;;;;;;;;;;5001830;28;20201;-87
2022/04/06 17:43:46;;;;;;;0.90;0.70;;;;;;;;;;4986792;28;20537;-87
2022/04/06 17:46:50;;;;;;;1.10;0.87;;;;;;;;;;4982431;28;20178;-90
2022/04/06 17:49:55;;;;;;;0.67;0.53;;;;;;;;;;4971159;28;20178;-91
2022/04/06 17:53:00;;;;;;;2.33;0.70;;;;;;;;;;4994994;28;20518;-87
2022/04/06 17:56:04;;;;;;;0.93;0.70;;;;;;;;;;4985416;28;20217;-87
2022/04/06 17:59:08;;;;;;;1.40;0.90;;;;;;;;;;4992466;28;20648;-86
2022/04/06 18:02:12;;;;;;;4.20;0.70;;;;;;;;;;4979431;28;20202;-85
2022/04/06 18:05:17;;;;;;;2.70;0.90;;;;;;;;;;4997021;28;20649;-86
2022/04/06 18:08:21;;;;;;;1.17;0.97;;;;;;;;;;4996494;28;20197;-87
2022/04/06 18:14:51;;;;;;;1.13;0.80;;;;;;;;;;4992187;28;20234;-85
2022/04/06 18:17:55;;;;;;;2.20;0.80;;;;;;;;;;4974919;28;20190;-87
2022/04/06 18:21:03;;;;;;;2.70;0.80;;;;;;;;;;4998329;28;20668;-84
2022/04/06 18:24:08;;;;;;;0.80;0.80;;;;;;;;;;4983923;28;20201;-85
2022/04/06 18:27:12;;;;;;;1.20;0.80;;;;;;;;;;4974166;28;20206;-86
2022/04/06 18:30:16;;;;;;;0.70;0.70;;;;;;;;;;4991111;28;20190;-87
2022/04/06 18:33:21;;;;;;;1.77;1.00;;;;;;;;;;4996654;28;20186;-88
2022/04/06 18:36:25;;;;;;;1.07;0.97;;;;;;;;;;4996694;28;20221;-86
2022/04/06 18:39:29;;;;;;;1.03;0.70;;;;;;;;;;4985069;28;20194;-87
2022/04/06 18:42:35;;;;;;;1.60;0.97;;;;;;;;;;4984821;28;20182;-87
2022/04/06 18:45:39;;;;;;;1.50;0.87;;;;;;;;;;4973783;28;20210;-87
2022/04/06 18:48:44;;;;;;;2.73;1.30;;;;;;;;;;4986681;28;20185;-88
2022/04/06 18:51:48;;;;;;;3.20;1.20;;;;;;;;;;4995899;28;20182;-87
2022/04/06 18:54:55;;;;;;;4.47;1.50;;;;;;;;;;4976962;28;20578;-90